sensor_id;sensor_type;location;lat;lon;timestamp;temperature;humidity
20483;DHT22;10400;53.198;6.592;2022-07-23T00:00:49;16.30;99.90
20483;DHT22;10400;53.198;6.592;2022-07-23T00:03:15;16.30;99.90
20483;DHT22;10400;53.198;6.592;2022-07-23T00:05:41;16.30;99.90
20483;DHT22;10400;53.198;6.592;2022-07-23T00:08:07;16.30;99.90
20483;DHT22;10400;53.198;6.592;2022-07-23T00:10:33;16.20;99.90
20483;DHT22;10400;53.198;6.592;2022-07-23T00:12:59;16.20;99.90
20483;DHT22;10400;53.198;6.592;2022-07-23T00:15:25;16.20;99.90
20483;DHT22;10400;53.198;6.592;2022-07-23T00:17:50;16.20;99.90
20483;DHT22;10400;53.198;6.592;2022-07-23T00:20:16;16.20;99.90
20483;DHT22;10400;53.198;6.592;2022-07-23T00:22:53;16.10;99.90
20483;DHT22;10400;53.198;6.592;2022-07-23T00:25:20;16.10;99.90
20483;DHT22;10400;53.198;6.592;2022-07-23T00:27:46;16.10;99.90
20483;DHT22;10400;53.198;6.592;2022-07-23T00:30:12;16.10;99.90
20483;DHT22;10400;53.198;6.592;2022-07-23T00:32:59;16.10;99.90
20483;DHT22;10400;53.198;6.592;2022-07-23T00:35:26;16.10;99.90
20483;DHT22;10400;53.198;6.592;2022-07-23T00:37:52;16.10;99.90
20483;DHT22;10400;53.198;6.592;2022-07-23T00:40:18;16.10;99.90
20483;DHT22;10400;53.198;6.592;2022-07-23T00:42:44;16.00;99.90
20483;DHT22;10400;53.198;6.592;2022-07-23T00:45:10;15.80;99.90
20483;DHT22;10400;53.198;6.592;2022-07-23T00:47:36;15.80;99.90
20483;DHT22;10400;53.198;6.592;2022-07-23T00:50:06;15.80;99.90
20483;DHT22;10400;53.198;6.592;2022-07-23T00:52:34;15.80;99.90
20483;DHT22;10400;53.198;6.592;2022-07-23T00:55:00;15.80;99.90
20483;DHT22;10400;53.198;6.592;2022-07-23T00:57:26;15.70;99.90
20483;DHT22;10400;53.198;6.592;2022-07-23T00:59:52;15.70;99.90
20483;DHT22;10400;53.198;6.592;2022-07-23T01:02:18;15.70;99.90
20483;DHT22;10400;53.198;6.592;2022-07-23T01:04:43;15.70;99.90
20483;DHT22;10400;53.198;6.592;2022-07-23T01:07:09;15.70;99.90
20483;DHT22;10400;53.198;6.592;2022-07-23T01:09:35;15.70;99.90
20483;DHT22;10400;53.198;6.592;2022-07-23T01:12:02;15.70;99.90
20483;DHT22;10400;53.198;6.592;2022-07-23T01:14:28;15.70;99.90
20483;DHT22;10400;53.198;6.592;2022-07-23T01:16:53;15.70;99.90
20483;DHT22;10400;53.198;6.592;2022-07-23T01:19:19;15.70;99.90
20483;DHT22;10400;53.198;6.592;2022-07-23T01:21:47;15.70;99.90
20483;DHT22;10400;53.198;6.592;2022-07-23T01:24:13;15.70;99.90
20483;DHT22;10400;53.198;6.592;2022-07-23T01:26:44;15.70;99.90
20483;DHT22;10400;53.198;6.592;2022-07-23T01:29:10;15.70;99.90
20483;DHT22;10400;53.198;6.592;2022-07-23T01:31:36;15.70;99.90
20483;DHT22;10400;53.198;6.592;2022-07-23T01:34:02;15.80;99.90
20483;DHT22;10400;53.198;6.592;2022-07-23T01:36:28;15.70;99.90
20483;DHT22;10400;53.198;6.592;2022-07-23T01:38:54;15.70;99.90
20483;DHT22;10400;53.198;6.592;2022-07-23T01:41:20;15.70;99.90
20483;DHT22;10400;53.198;6.592;2022-07-23T01:43:46;15.70;99.90
20483;DHT22;10400;53.198;6.592;2022-07-23T01:46:11;15.70;99.90
20483;DHT22;10400;53.198;6.592;2022-07-23T01:48:37;15.70;99.90
20483;DHT22;10400;53.198;6.592;2022-07-23T01:51:03;15.60;99.90
20483;DHT22;10400;53.198;6.592;2022-07-23T01:53:29;15.60;99.90
20483;DHT22;10400;53.198;6.592;2022-07-23T01:55:57;15.60;99.90
20483;DHT22;10400;53.198;6.592;2022-07-23T01:58:22;15.60;99.90
20483;DHT22;10400;53.198;6.592;2022-07-23T02:00:48;15.60;99.90
20483;DHT22;10400;53.198;6.592;2022-07-23T02:03:14;15.50;99.90
20483;DHT22;10400;53.198;6.592;2022-07-23T02:05:39;15.60;99.90
20483;DHT22;10400;53.198;6.592;2022-07-23T02:08:05;15.60;99.90
20483;DHT22;10400;53.198;6.592;2022-07-23T02:10:30;15.50;99.90
20483;DHT22;10400;53.198;6.592;2022-07-23T02:12:56;15.50;99.90
20483;DHT22;10400;53.198;6.592;2022-07-23T02:15:22;15.50;99.90
20483;DHT22;10400;53.198;6.592;2022-07-23T02:17:47;15.50;99.90
20483;DHT22;10400;53.198;6.592;2022-07-23T02:20:13;15.50;99.90
20483;DHT22;10400;53.198;6.592;2022-07-23T02:22:39;15.40;99.90
20483;DHT22;10400;53.198;6.592;2022-07-23T02:25:06;15.50;99.90
20483;DHT22;10400;53.198;6.592;2022-07-23T02:27:32;15.50;99.90
20483;DHT22;10400;53.198;6.592;2022-07-23T02:29:58;15.40;99.90
20483;DHT22;10400;53.198;6.592;2022-07-23T02:32:24;15.40;99.90
20483;DHT22;10400;53.198;6.592;2022-07-23T02:34:50;15.40;99.90
20483;DHT22;10400;53.198;6.592;2022-07-23T02:37:15;15.50;99.90
20483;DHT22;10400;53.198;6.592;2022-07-23T02:39:41;15.40;99.90
20483;DHT22;10400;53.198;6.592;2022-07-23T02:42:07;15.50;99.90
20483;DHT22;10400;53.198;6.592;2022-07-23T02:44:32;15.40;99.90
20483;DHT22;10400;53.198;6.592;2022-07-23T02:46:58;15.40;99.90
20483;DHT22;10400;53.198;6.592;2022-07-23T02:49:23;15.40;99.90
20483;DHT22;10400;53.198;6.592;2022-07-23T02:51:49;15.30;99.90
20483;DHT22;10400;53.198;6.592;2022-07-23T02:54:15;15.40;99.90
20483;DHT22;10400;53.198;6.592;2022-07-23T02:56:41;15.40;99.90
20483;DHT22;10400;53.198;6.592;2022-07-23T02:59:07;15.40;99.90
20483;DHT22;10400;53.198;6.592;2022-07-23T03:01:32;15.40;99.90
20483;DHT22;10400;53.198;6.592;2022-07-23T03:03:58;15.40;99.90
20483;DHT22;10400;53.198;6.592;2022-07-23T03:06:23;15.40;99.90
20483;DHT22;10400;53.198;6.592;2022-07-23T03:08:49;15.40;99.90
20483;DHT22;10400;53.198;6.592;2022-07-23T03:11:15;15.50;99.90
20483;DHT22;10400;53.198;6.592;2022-07-23T03:13:41;15.40;99.90
20483;DHT22;10400;53.198;6.592;2022-07-23T03:16:07;15.40;99.90
20483;DHT22;10400;53.198;6.592;2022-07-23T03:18:33;15.40;99.90
20483;DHT22;10400;53.198;6.592;2022-07-23T03:20:59;15.50;99.90
20483;DHT22;10400;53.198;6.592;2022-07-23T03:23:24;15.40;99.90
20483;DHT22;10400;53.198;6.592;2022-07-23T03:25:50;15.40;99.90
20483;DHT22;10400;53.198;6.592;2022-07-23T03:28:16;15.40;99.90
20483;DHT22;10400;53.198;6.592;2022-07-23T03:30:43;15.40;99.90
20483;DHT22;10400;53.198;6.592;2022-07-23T03:33:12;15.40;99.90
20483;DHT22;10400;53.198;6.592;2022-07-23T03:35:37;15.40;99.90
20483;DHT22;10400;53.198;6.592;2022-07-23T03:38:03;15.40;99.90
20483;DHT22;10400;53.198;6.592;2022-07-23T03:40:29;15.40;99.90
20483;DHT22;10400;53.198;6.592;2022-07-23T03:42:54;15.40;99.90
20483;DHT22;10400;53.198;6.592;2022-07-23T03:45:20;15.40;99.90
20483;DHT22;10400;53.198;6.592;2022-07-23T03:47:45;15.30;99.90
20483;DHT22;10400;53.198;6.592;2022-07-23T03:50:11;15.30;99.90
20483;DHT22;10400;53.198;6.592;2022-07-23T03:52:37;15.30;99.90
20483;DHT22;10400;53.198;6.592;2022-07-23T03:55:03;15.30;99.90
20483;DHT22;10400;53.198;6.592;2022-07-23T03:57:29;15.40;99.90
20483;DHT22;10400;53.198;6.592;2022-07-23T03:59:55;15.40;99.90
20483;DHT22;10400;53.198;6.592;2022-07-23T04:02:21;15.30;99.90
20483;DHT22;10400;53.198;6.592;2022-07-23T04:04:46;15.30;99.90
20483;DHT22;10400;53.198;6.592;2022-07-23T04:07:12;15.30;99.90
20483;DHT22;10400;53.198;6.592;2022-07-23T04:09:38;15.40;99.90
20483;DHT22;10400;53.198;6.592;2022-07-23T04:12:06;15.40;99.90
20483;DHT22;10400;53.198;6.592;2022-07-23T04:14:32;15.40;99.90
20483;DHT22;10400;53.198;6.592;2022-07-23T04:16:58;15.40;99.90
20483;DHT22;10400;53.198;6.592;2022-07-23T04:19:23;15.30;99.90
20483;DHT22;10400;53.198;6.592;2022-07-23T04:21:50;15.30;99.90
20483;DHT22;10400;53.198;6.592;2022-07-23T04:24:16;15.40;99.90
20483;DHT22;10400;53.198;6.592;2022-07-23T04:26:41;15.30;99.90
20483;DHT22;10400;53.198;6.592;2022-07-23T04:29:07;15.30;99.90
20483;DHT22;10400;53.198;6.592;2022-07-23T04:31:32;15.40;99.90
20483;DHT22;10400;53.198;6.592;2022-07-23T04:33:58;15.40;99.90
20483;DHT22;10400;53.198;6.592;2022-07-23T04:36:24;15.40;99.90
20483;DHT22;10400;53.198;6.592;2022-07-23T04:38:49;15.40;99.90
20483;DHT22;10400;53.198;6.592;2022-07-23T04:41:15;15.40;99.90
20483;DHT22;10400;53.198;6.592;2022-07-23T04:43:40;15.50;99.90
20483;DHT22;10400;53.198;6.592;2022-07-23T04:46:06;15.50;99.90
20483;DHT22;10400;53.198;6.592;2022-07-23T04:48:31;15.50;99.90
20483;DHT22;10400;53.198;6.592;2022-07-23T04:50:57;15.50;99.90
20483;DHT22;10400;53.198;6.592;2022-07-23T04:53:23;15.60;99.90
20483;DHT22;10400;53.198;6.592;2022-07-23T04:55:49;15.50;99.90
20483;DHT22;10400;53.198;6.592;2022-07-23T04:58:15;15.50;99.90
20483;DHT22;10400;53.198;6.592;2022-07-23T05:00:40;15.50;99.90
20483;DHT22;10400;53.198;6.592;2022-07-23T05:03:06;15.40;99.90
20483;DHT22;10400;53.198;6.592;2022-07-23T05:05:32;15.50;99.90
20483;DHT22;10400;53.198;6.592;2022-07-23T05:07:57;15.60;99.90
20483;DHT22;10400;53.198;6.592;2022-07-23T05:10:23;15.60;99.90
20483;DHT22;10400;53.198;6.592;2022-07-23T05:12:49;15.60;99.90
20483;DHT22;10400;53.198;6.592;2022-07-23T05:15:14;15.60;99.90
20483;DHT22;10400;53.198;6.592;2022-07-23T05:17:40;15.70;99.90
20483;DHT22;10400;53.198;6.592;2022-07-23T05:20:06;15.80;99.90
20483;DHT22;10400;53.198;6.592;2022-07-23T05:22:32;16.00;99.90
20483;DHT22;10400;53.198;6.592;2022-07-23T05:24:58;16.10;99.90
20483;DHT22;10400;53.198;6.592;2022-07-23T05:27:24;16.10;99.90
20483;DHT22;10400;53.198;6.592;2022-07-23T05:29:50;16.20;99.90
20483;DHT22;10400;53.198;6.592;2022-07-23T05:32:15;16.20;99.90
20483;DHT22;10400;53.198;6.592;2022-07-23T05:34:41;16.20;99.90
20483;DHT22;10400;53.198;6.592;2022-07-23T05:37:07;16.20;99.90
20483;DHT22;10400;53.198;6.592;2022-07-23T05:39:32;16.20;99.90
20483;DHT22;10400;53.198;6.592;2022-07-23T05:41:58;16.10;99.90
20483;DHT22;10400;53.198;6.592;2022-07-23T05:44:23;16.20;99.90
20483;DHT22;10400;53.198;6.592;2022-07-23T05:46:49;16.10;99.90
20483;DHT22;10400;53.198;6.592;2022-07-23T05:49:15;16.10;99.90
20483;DHT22;10400;53.198;6.592;2022-07-23T05:51:40;16.10;99.90
20483;DHT22;10400;53.198;6.592;2022-07-23T05:54:06;16.30;99.90
20483;DHT22;10400;53.198;6.592;2022-07-23T05:56:31;16.40;99.90
20483;DHT22;10400;53.198;6.592;2022-07-23T05:58:57;16.50;99.90
20483;DHT22;10400;53.198;6.592;2022-07-23T06:01:22;16.50;99.90
20483;DHT22;10400;53.198;6.592;2022-07-23T06:03:48;16.60;99.90
20483;DHT22;10400;53.198;6.592;2022-07-23T06:06:14;16.70;99.90
20483;DHT22;10400;53.198;6.592;2022-07-23T06:08:39;16.70;99.90
20483;DHT22;10400;53.198;6.592;2022-07-23T06:11:05;16.70;99.90
20483;DHT22;10400;53.198;6.592;2022-07-23T06:13:31;16.70;99.90
20483;DHT22;10400;53.198;6.592;2022-07-23T06:15:56;16.70;99.90
20483;DHT22;10400;53.198;6.592;2022-07-23T06:18:22;16.80;99.90
20483;DHT22;10400;53.198;6.592;2022-07-23T06:20:48;16.90;99.90
20483;DHT22;10400;53.198;6.592;2022-07-23T06:23:13;16.90;99.90
20483;DHT22;10400;53.198;6.592;2022-07-23T06:25:39;16.90;99.90
20483;DHT22;10400;53.198;6.592;2022-07-23T06:28:04;16.90;99.90
20483;DHT22;10400;53.198;6.592;2022-07-23T06:30:30;16.90;99.90
20483;DHT22;10400;53.198;6.592;2022-07-23T06:32:56;16.90;99.90
20483;DHT22;10400;53.198;6.592;2022-07-23T06:35:22;17.00;99.90
20483;DHT22;10400;53.198;6.592;2022-07-23T06:37:48;17.10;99.90
20483;DHT22;10400;53.198;6.592;2022-07-23T06:40:13;17.20;99.90
20483;DHT22;10400;53.198;6.592;2022-07-23T06:42:39;17.30;99.90
20483;DHT22;10400;53.198;6.592;2022-07-23T06:45:06;17.30;99.90
20483;DHT22;10400;53.198;6.592;2022-07-23T06:47:32;17.30;99.90
20483;DHT22;10400;53.198;6.592;2022-07-23T06:49:58;17.20;99.90
20483;DHT22;10400;53.198;6.592;2022-07-23T06:52:23;17.20;99.90
20483;DHT22;10400;53.198;6.592;2022-07-23T06:54:49;17.20;99.90
20483;DHT22;10400;53.198;6.592;2022-07-23T06:57:15;17.30;99.90
20483;DHT22;10400;53.198;6.592;2022-07-23T06:59:40;17.40;99.90
20483;DHT22;10400;53.198;6.592;2022-07-23T07:02:07;17.40;99.90
20483;DHT22;10400;53.198;6.592;2022-07-23T07:04:33;17.50;99.90
20483;DHT22;10400;53.198;6.592;2022-07-23T07:06:59;17.40;99.90
20483;DHT22;10400;53.198;6.592;2022-07-23T07:09:24;17.40;99.90
20483;DHT22;10400;53.198;6.592;2022-07-23T07:11:50;17.40;99.90
20483;DHT22;10400;53.198;6.592;2022-07-23T07:14:16;17.60;99.90
20483;DHT22;10400;53.198;6.592;2022-07-23T07:16:41;17.70;99.90
20483;DHT22;10400;53.198;6.592;2022-07-23T07:19:07;17.70;99.90
20483;DHT22;10400;53.198;6.592;2022-07-23T07:21:32;17.80;99.90
20483;DHT22;10400;53.198;6.592;2022-07-23T07:23:58;18.10;99.90
20483;DHT22;10400;53.198;6.592;2022-07-23T07:26:24;18.50;99.90
20483;DHT22;10400;53.198;6.592;2022-07-23T07:28:49;18.70;99.90
20483;DHT22;10400;53.198;6.592;2022-07-23T07:31:15;18.90;99.90
20483;DHT22;10400;53.198;6.592;2022-07-23T07:33:41;19.00;99.90
20483;DHT22;10400;53.198;6.592;2022-07-23T07:36:06;19.10;99.90
20483;DHT22;10400;53.198;6.592;2022-07-23T07:38:32;19.20;99.90
20483;DHT22;10400;53.198;6.592;2022-07-23T07:40:58;19.10;99.90
20483;DHT22;10400;53.198;6.592;2022-07-23T07:43:23;19.00;99.90
20483;DHT22;10400;53.198;6.592;2022-07-23T07:45:49;18.80;99.90
20483;DHT22;10400;53.198;6.592;2022-07-23T07:48:14;18.80;99.90
20483;DHT22;10400;53.198;6.592;2022-07-23T07:50:40;18.90;99.90
20483;DHT22;10400;53.198;6.592;2022-07-23T07:53:06;18.80;99.90
20483;DHT22;10400;53.198;6.592;2022-07-23T07:55:31;19.10;99.90
20483;DHT22;10400;53.198;6.592;2022-07-23T07:57:57;19.30;99.90
20483;DHT22;10400;53.198;6.592;2022-07-23T08:00:23;19.50;99.90
20483;DHT22;10400;53.198;6.592;2022-07-23T08:02:51;19.40;99.90
20483;DHT22;10400;53.198;6.592;2022-07-23T08:05:25;19.30;99.90
20483;DHT22;10400;53.198;6.592;2022-07-23T08:07:50;19.00;99.90
20483;DHT22;10400;53.198;6.592;2022-07-23T08:10:18;19.10;99.90
20483;DHT22;10400;53.198;6.592;2022-07-23T08:12:46;19.50;99.90
20483;DHT22;10400;53.198;6.592;2022-07-23T08:15:13;19.70;99.90
20483;DHT22;10400;53.198;6.592;2022-07-23T08:17:40;19.60;99.90
20483;DHT22;10400;53.198;6.592;2022-07-23T08:20:07;19.50;99.90
20483;DHT22;10400;53.198;6.592;2022-07-23T08:22:53;19.00;99.90
20483;DHT22;10400;53.198;6.592;2022-07-23T08:25:30;19.20;99.90
20483;DHT22;10400;53.198;6.592;2022-07-23T08:27:57;19.70;99.90
20483;DHT22;10400;53.198;6.592;2022-07-23T08:30:23;19.90;99.90
20483;DHT22;10400;53.198;6.592;2022-07-23T08:35:33;19.70;99.90
20483;DHT22;10400;53.198;6.592;2022-07-23T08:38:01;19.40;99.90
20483;DHT22;10400;53.198;6.592;2022-07-23T08:40:29;19.20;99.90
20483;DHT22;10400;53.198;6.592;2022-07-23T08:42:55;19.40;99.90
20483;DHT22;10400;53.198;6.592;2022-07-23T08:45:22;19.70;99.90
20483;DHT22;10400;53.198;6.592;2022-07-23T08:47:54;19.80;99.90
20483;DHT22;10400;53.198;6.592;2022-07-23T08:50:20;19.80;99.90
20483;DHT22;10400;53.198;6.592;2022-07-23T08:52:48;19.90;99.90
20483;DHT22;10400;53.198;6.592;2022-07-23T08:55:17;19.80;99.90
20483;DHT22;10400;53.198;6.592;2022-07-23T08:57:43;19.60;99.90
20483;DHT22;10400;53.198;6.592;2022-07-23T09:00:09;19.50;99.90
20483;DHT22;10400;53.198;6.592;2022-07-23T09:02:42;19.40;99.90
20483;DHT22;10400;53.198;6.592;2022-07-23T09:05:09;19.60;99.90
20483;DHT22;10400;53.198;6.592;2022-07-23T09:07:37;19.30;99.90
20483;DHT22;10400;53.198;6.592;2022-07-23T09:10:08;19.60;99.90
20483;DHT22;10400;53.198;6.592;2022-07-23T09:12:34;19.80;99.90
20483;DHT22;10400;53.198;6.592;2022-07-23T09:15:05;19.90;99.90
20483;DHT22;10400;53.198;6.592;2022-07-23T09:17:41;20.00;99.90
20483;DHT22;10400;53.198;6.592;2022-07-23T09:20:11;20.00;99.90
20483;DHT22;10400;53.198;6.592;2022-07-23T09:22:37;20.20;99.90
20483;DHT22;10400;53.198;6.592;2022-07-23T09:25:18;20.30;99.90
20483;DHT22;10400;53.198;6.592;2022-07-23T09:27:48;20.30;99.90
20483;DHT22;10400;53.198;6.592;2022-07-23T09:30:14;20.30;99.90
20483;DHT22;10400;53.198;6.592;2022-07-23T09:32:40;20.40;99.90
20483;DHT22;10400;53.198;6.592;2022-07-23T09:35:06;20.30;99.90
20483;DHT22;10400;53.198;6.592;2022-07-23T09:37:32;20.30;99.90
20483;DHT22;10400;53.198;6.592;2022-07-23T09:40:09;20.30;99.90
20483;DHT22;10400;53.198;6.592;2022-07-23T09:42:37;20.30;99.90
20483;DHT22;10400;53.198;6.592;2022-07-23T09:45:03;20.50;99.90
20483;DHT22;10400;53.198;6.592;2022-07-23T09:47:31;20.40;99.90
20483;DHT22;10400;53.198;6.592;2022-07-23T09:52:27;20.20;99.90
20483;DHT22;10400;53.198;6.592;2022-07-23T09:54:59;20.20;99.90
20483;DHT22;10400;53.198;6.592;2022-07-23T09:57:26;20.30;99.90
20483;DHT22;10400;53.198;6.592;2022-07-23T09:59:52;20.10;99.90
20483;DHT22;10400;53.198;6.592;2022-07-23T10:02:18;20.20;99.90
20483;DHT22;10400;53.198;6.592;2022-07-23T10:04:46;20.30;99.90
20483;DHT22;10400;53.198;6.592;2022-07-23T10:07:13;20.50;99.90
20483;DHT22;10400;53.198;6.592;2022-07-23T10:09:40;20.70;99.90
20483;DHT22;10400;53.198;6.592;2022-07-23T10:12:14;20.60;99.90
20483;DHT22;10400;53.198;6.592;2022-07-23T10:14:58;20.60;99.90
20483;DHT22;10400;53.198;6.592;2022-07-23T10:17:25;20.80;99.90
20483;DHT22;10400;53.198;6.592;2022-07-23T10:19:50;20.70;99.90
20483;DHT22;10400;53.198;6.592;2022-07-23T10:22:22;20.50;99.90
20483;DHT22;10400;53.198;6.592;2022-07-23T10:31:08;20.40;99.90
20483;DHT22;10400;53.198;6.592;2022-07-23T10:36:47;20.40;99.90
20483;DHT22;10400;53.198;6.592;2022-07-23T10:39:20;20.60;99.90
20483;DHT22;10400;53.198;6.592;2022-07-23T10:41:47;20.70;99.90
20483;DHT22;10400;53.198;6.592;2022-07-23T10:44:16;20.50;99.90
20483;DHT22;10400;53.198;6.592;2022-07-23T10:46:55;20.70;99.90
20483;DHT22;10400;53.198;6.592;2022-07-23T10:49:30;20.90;99.90
20483;DHT22;10400;53.198;6.592;2022-07-23T10:54:50;21.50;99.90
20483;DHT22;10400;53.198;6.592;2022-07-23T10:57:21;21.50;99.90
20483;DHT22;10400;53.198;6.592;2022-07-23T11:02:45;21.40;99.90
20483;DHT22;10400;53.198;6.592;2022-07-23T11:05:16;21.10;99.90
20483;DHT22;10400;53.198;6.592;2022-07-23T11:10:43;21.10;99.90
20483;DHT22;10400;53.198;6.592;2022-07-23T11:31:57;20.40;99.90
20483;DHT22;10400;53.198;6.592;2022-07-23T11:37:06;20.80;99.90
20483;DHT22;10400;53.198;6.592;2022-07-23T11:39:33;20.80;99.90
20483;DHT22;10400;53.198;6.592;2022-07-23T11:42:00;21.10;99.90
20483;DHT22;10400;53.198;6.592;2022-07-23T11:44:27;21.20;99.90
20483;DHT22;10400;53.198;6.592;2022-07-23T11:46:59;21.20;99.90
20483;DHT22;10400;53.198;6.592;2022-07-23T11:49:25;21.00;99.90
20483;DHT22;10400;53.198;6.592;2022-07-23T11:52:13;21.10;99.90
20483;DHT22;10400;53.198;6.592;2022-07-23T11:54:50;21.30;99.90
20483;DHT22;10400;53.198;6.592;2022-07-23T11:57:17;21.50;99.90
20483;DHT22;10400;53.198;6.592;2022-07-23T11:59:43;21.50;99.90
20483;DHT22;10400;53.198;6.592;2022-07-23T12:02:11;21.50;99.90
20483;DHT22;10400;53.198;6.592;2022-07-23T12:04:44;21.60;99.90
20483;DHT22;10400;53.198;6.592;2022-07-23T12:07:43;21.60;99.90
20483;DHT22;10400;53.198;6.592;2022-07-23T12:12:40;21.80;99.90
20483;DHT22;10400;53.198;6.592;2022-07-23T12:15:07;21.80;99.90
20483;DHT22;10400;53.198;6.592;2022-07-23T12:17:35;21.80;99.90
20483;DHT22;10400;53.198;6.592;2022-07-23T12:20:04;21.70;99.90
20483;DHT22;10400;53.198;6.592;2022-07-23T12:22:42;21.90;99.90
20483;DHT22;10400;53.198;6.592;2022-07-23T12:25:13;22.20;99.90
20483;DHT22;10400;53.198;6.592;2022-07-23T12:27:40;22.30;99.90
20483;DHT22;10400;53.198;6.592;2022-07-23T12:30:42;22.20;99.90
20483;DHT22;10400;53.198;6.592;2022-07-23T12:33:11;22.60;99.90
20483;DHT22;10400;53.198;6.592;2022-07-23T12:35:45;22.90;99.90
20483;DHT22;10400;53.198;6.592;2022-07-23T12:38:13;22.90;99.90
20483;DHT22;10400;53.198;6.592;2022-07-23T12:40:49;22.90;99.90
20483;DHT22;10400;53.198;6.592;2022-07-23T12:43:20;22.80;99.90
20483;DHT22;10400;53.198;6.592;2022-07-23T12:48:27;23.20;99.90
20483;DHT22;10400;53.198;6.592;2022-07-23T12:56:06;22.70;99.90
20483;DHT22;10400;53.198;6.592;2022-07-23T13:01:10;23.10;99.90
20483;DHT22;10400;53.198;6.592;2022-07-23T13:06:29;23.30;99.90
20483;DHT22;10400;53.198;6.592;2022-07-23T13:08:55;23.20;99.90
20483;DHT22;10400;53.198;6.592;2022-07-23T13:11:21;23.10;99.90
20483;DHT22;10400;53.198;6.592;2022-07-23T13:13:47;23.10;99.90
20483;DHT22;10400;53.198;6.592;2022-07-23T13:16:13;23.20;99.90
20483;DHT22;10400;53.198;6.592;2022-07-23T13:18:38;23.10;99.90
20483;DHT22;10400;53.198;6.592;2022-07-23T13:21:04;23.00;99.90
20483;DHT22;10400;53.198;6.592;2022-07-23T13:23:30;23.10;99.90
20483;DHT22;10400;53.198;6.592;2022-07-23T13:25:56;23.00;99.90
20483;DHT22;10400;53.198;6.592;2022-07-23T13:28:22;23.10;99.90
20483;DHT22;10400;53.198;6.592;2022-07-23T13:30:50;23.10;99.90
20483;DHT22;10400;53.198;6.592;2022-07-23T13:33:21;23.30;99.90
20483;DHT22;10400;53.198;6.592;2022-07-23T13:35:48;23.60;99.90
20483;DHT22;10400;53.198;6.592;2022-07-23T13:38:14;23.70;99.90
20483;DHT22;10400;53.198;6.592;2022-07-23T13:40:42;23.60;99.90
20483;DHT22;10400;53.198;6.592;2022-07-23T13:43:10;23.40;99.90
20483;DHT22;10400;53.198;6.592;2022-07-23T13:45:36;23.20;99.90
20483;DHT22;10400;53.198;6.592;2022-07-23T13:48:03;23.30;99.90
20483;DHT22;10400;53.198;6.592;2022-07-23T13:50:29;23.80;99.90
20483;DHT22;10400;53.198;6.592;2022-07-23T13:52:55;24.10;99.90
20483;DHT22;10400;53.198;6.592;2022-07-23T13:55:21;24.20;99.90
20483;DHT22;10400;53.198;6.592;2022-07-23T13:57:46;23.90;99.90
20483;DHT22;10400;53.198;6.592;2022-07-23T14:00:13;23.70;99.90
20483;DHT22;10400;53.198;6.592;2022-07-23T14:02:39;23.70;99.90
20483;DHT22;10400;53.198;6.592;2022-07-23T14:05:07;23.80;99.90
20483;DHT22;10400;53.198;6.592;2022-07-23T14:07:34;23.60;99.90
20483;DHT22;10400;53.198;6.592;2022-07-23T14:09:59;23.50;99.90
20483;DHT22;10400;53.198;6.592;2022-07-23T14:12:26;23.40;99.90
20483;DHT22;10400;53.198;6.592;2022-07-23T14:14:51;23.60;99.90
20483;DHT22;10400;53.198;6.592;2022-07-23T14:17:18;23.50;99.90
20483;DHT22;10400;53.198;6.592;2022-07-23T14:19:43;23.60;99.90
20483;DHT22;10400;53.198;6.592;2022-07-23T14:22:09;23.60;99.90
20483;DHT22;10400;53.198;6.592;2022-07-23T14:24:34;23.30;99.90
20483;DHT22;10400;53.198;6.592;2022-07-23T14:27:02;23.30;99.90
20483;DHT22;10400;53.198;6.592;2022-07-23T14:29:28;23.40;99.90
20483;DHT22;10400;53.198;6.592;2022-07-23T14:31:53;23.50;99.90
20483;DHT22;10400;53.198;6.592;2022-07-23T14:34:19;23.90;99.90
20483;DHT22;10400;53.198;6.592;2022-07-23T14:36:45;24.00;99.90
20483;DHT22;10400;53.198;6.592;2022-07-23T14:39:11;24.20;99.90
20483;DHT22;10400;53.198;6.592;2022-07-23T14:41:38;24.30;99.90
20483;DHT22;10400;53.198;6.592;2022-07-23T14:44:03;24.20;99.90
20483;DHT22;10400;53.198;6.592;2022-07-23T14:46:29;24.10;99.90
20483;DHT22;10400;53.198;6.592;2022-07-23T14:48:55;24.30;99.90
20483;DHT22;10400;53.198;6.592;2022-07-23T14:51:21;23.80;99.90
20483;DHT22;10400;53.198;6.592;2022-07-23T14:53:46;23.50;99.90
20483;DHT22;10400;53.198;6.592;2022-07-23T14:56:13;23.70;99.90
20483;DHT22;10400;53.198;6.592;2022-07-23T14:58:39;23.80;99.90
20483;DHT22;10400;53.198;6.592;2022-07-23T15:01:05;23.70;99.90
20483;DHT22;10400;53.198;6.592;2022-07-23T15:03:31;23.70;99.90
20483;DHT22;10400;53.198;6.592;2022-07-23T15:05:56;23.50;99.90
20483;DHT22;10400;53.198;6.592;2022-07-23T15:08:22;23.50;99.90
20483;DHT22;10400;53.198;6.592;2022-07-23T15:10:48;23.50;99.90
20483;DHT22;10400;53.198;6.592;2022-07-23T15:13:13;23.30;99.90
20483;DHT22;10400;53.198;6.592;2022-07-23T15:15:39;23.30;99.90
20483;DHT22;10400;53.198;6.592;2022-07-23T15:18:05;23.20;99.90
20483;DHT22;10400;53.198;6.592;2022-07-23T15:20:30;23.40;99.90
20483;DHT22;10400;53.198;6.592;2022-07-23T15:22:56;23.40;99.90
20483;DHT22;10400;53.198;6.592;2022-07-23T15:25:23;23.30;99.90
20483;DHT22;10400;53.198;6.592;2022-07-23T15:27:49;23.40;99.90
20483;DHT22;10400;53.198;6.592;2022-07-23T15:30:15;23.80;99.90
20483;DHT22;10400;53.198;6.592;2022-07-23T15:32:41;23.90;99.90
20483;DHT22;10400;53.198;6.592;2022-07-23T15:35:07;24.30;99.90
20483;DHT22;10400;53.198;6.592;2022-07-23T15:37:34;24.40;99.90
20483;DHT22;10400;53.198;6.592;2022-07-23T15:40:00;24.10;99.90
20483;DHT22;10400;53.198;6.592;2022-07-23T15:42:25;24.50;99.90
20483;DHT22;10400;53.198;6.592;2022-07-23T15:44:51;24.50;99.90
20483;DHT22;10400;53.198;6.592;2022-07-23T15:47:17;24.40;99.90
20483;DHT22;10400;53.198;6.592;2022-07-23T15:49:44;24.80;99.90
20483;DHT22;10400;53.198;6.592;2022-07-23T15:52:10;25.00;99.90
20483;DHT22;10400;53.198;6.592;2022-07-23T15:54:37;24.90;99.90
20483;DHT22;10400;53.198;6.592;2022-07-23T15:57:03;25.00;99.90
20483;DHT22;10400;53.198;6.592;2022-07-23T15:59:29;24.80;99.90
20483;DHT22;10400;53.198;6.592;2022-07-23T16:01:56;25.10;99.90
20483;DHT22;10400;53.198;6.592;2022-07-23T16:04:22;25.00;99.90
20483;DHT22;10400;53.198;6.592;2022-07-23T16:06:48;25.20;99.90
20483;DHT22;10400;53.198;6.592;2022-07-23T16:09:13;25.00;99.90
20483;DHT22;10400;53.198;6.592;2022-07-23T16:11:39;24.80;99.90
20483;DHT22;10400;53.198;6.592;2022-07-23T16:14:05;25.00;99.90
20483;DHT22;10400;53.198;6.592;2022-07-23T16:16:31;25.20;99.90
20483;DHT22;10400;53.198;6.592;2022-07-23T16:18:57;25.20;99.90
20483;DHT22;10400;53.198;6.592;2022-07-23T16:21:23;25.20;99.90
20483;DHT22;10400;53.198;6.592;2022-07-23T16:23:50;25.00;99.90
20483;DHT22;10400;53.198;6.592;2022-07-23T16:26:34;24.90;99.90
20483;DHT22;10400;53.198;6.592;2022-07-23T16:28:59;25.00;99.90